sensor_id;sensor_type;location;lat;lon;timestamp;temperature;humidity
13610;DHT22;6876;50.788;4.940;2023-04-24T00:02:42;9.80;99.90
13610;DHT22;6876;50.788;4.940;2023-04-24T00:05:32;9.80;99.90
13610;DHT22;6876;50.788;4.940;2023-04-24T00:08:21;9.80;99.90
13610;DHT22;6876;50.788;4.940;2023-04-24T00:11:09;9.80;99.90
13610;DHT22;6876;50.788;4.940;2023-04-24T00:13:57;9.90;99.90
13610;DHT22;6876;50.788;4.940;2023-04-24T00:16:44;9.80;99.90
13610;DHT22;6876;50.788;4.940;2023-04-24T00:19:31;9.80;99.90
13610;DHT22;6876;50.788;4.940;2023-04-24T00:22:19;9.80;99.90
13610;DHT22;6876;50.788;4.940;2023-04-24T00:25:08;9.90;99.90
13610;DHT22;6876;50.788;4.940;2023-04-24T00:27:56;9.90;99.90
13610;DHT22;6876;50.788;4.940;2023-04-24T00:30:43;9.80;99.90
13610;DHT22;6876;50.788;4.940;2023-04-24T00:33:30;9.80;99.90
13610;DHT22;6876;50.788;4.940;2023-04-24T00:36:18;9.80;99.90
13610;DHT22;6876;50.788;4.940;2023-04-24T00:39:06;9.80;99.90
13610;DHT22;6876;50.788;4.940;2023-04-24T00:41:56;9.80;99.90
13610;DHT22;6876;50.788;4.940;2023-04-24T00:44:43;9.80;99.90
13610;DHT22;6876;50.788;4.940;2023-04-24T00:47:32;9.80;99.90
13610;DHT22;6876;50.788;4.940;2023-04-24T00:50:21;9.80;99.90
13610;DHT22;6876;50.788;4.940;2023-04-24T00:53:08;9.90;99.90
13610;DHT22;6876;50.788;4.940;2023-04-24T00:55:56;9.80;99.90
13610;DHT22;6876;50.788;4.940;2023-04-24T00:58:45;9.80;99.90
13610;DHT22;6876;50.788;4.940;2023-04-24T01:01:32;9.80;99.90
13610;DHT22;6876;50.788;4.940;2023-04-24T01:04:20;9.80;99.90
13610;DHT22;6876;50.788;4.940;2023-04-24T01:07:08;9.80;99.90
13610;DHT22;6876;50.788;4.940;2023-04-24T01:09:57;9.80;99.90
13610;DHT22;6876;50.788;4.940;2023-04-24T01:12:44;9.80;99.90
13610;DHT22;6876;50.788;4.940;2023-04-24T01:15:34;9.80;99.90
13610;DHT22;6876;50.788;4.940;2023-04-24T01:18:21;9.80;99.90
13610;DHT22;6876;50.788;4.940;2023-04-24T01:21:09;9.80;99.90
13610;DHT22;6876;50.788;4.940;2023-04-24T01:24:00;9.80;99.90
13610;DHT22;6876;50.788;4.940;2023-04-24T01:26:48;9.80;99.90
13610;DHT22;6876;50.788;4.940;2023-04-24T01:29:35;9.80;99.90
13610;DHT22;6876;50.788;4.940;2023-04-24T01:32:23;9.80;99.90
13610;DHT22;6876;50.788;4.940;2023-04-24T01:35:11;9.70;99.90
13610;DHT22;6876;50.788;4.940;2023-04-24T01:37:58;9.70;99.90
13610;DHT22;6876;50.788;4.940;2023-04-24T01:40:47;9.70;99.90
13610;DHT22;6876;50.788;4.940;2023-04-24T01:43:35;9.70;99.90
13610;DHT22;6876;50.788;4.940;2023-04-24T01:46:22;9.70;99.90
13610;DHT22;6876;50.788;4.940;2023-04-24T01:49:10;9.60;99.90
13610;DHT22;6876;50.788;4.940;2023-04-24T01:51:57;9.60;99.90
13610;DHT22;6876;50.788;4.940;2023-04-24T01:54:45;9.60;99.90
13610;DHT22;6876;50.788;4.940;2023-04-24T01:57:34;9.50;99.90
13610;DHT22;6876;50.788;4.940;2023-04-24T02:00:22;9.50;99.90
13610;DHT22;6876;50.788;4.940;2023-04-24T02:03:10;9.50;99.90
13610;DHT22;6876;50.788;4.940;2023-04-24T02:05:57;9.50;99.90
13610;DHT22;6876;50.788;4.940;2023-04-24T02:08:44;9.30;99.90
13610;DHT22;6876;50.788;4.940;2023-04-24T02:11:32;9.40;99.90
13610;DHT22;6876;50.788;4.940;2023-04-24T02:14:20;9.40;99.90
13610;DHT22;6876;50.788;4.940;2023-04-24T02:17:08;9.30;99.90
13610;DHT22;6876;50.788;4.940;2023-04-24T02:19:56;9.30;99.90
13610;DHT22;6876;50.788;4.940;2023-04-24T02:22:43;9.30;99.90
13610;DHT22;6876;50.788;4.940;2023-04-24T02:25:30;9.20;99.90
13610;DHT22;6876;50.788;4.940;2023-04-24T02:28:18;9.20;99.90
13610;DHT22;6876;50.788;4.940;2023-04-24T02:31:06;9.10;99.90
13610;DHT22;6876;50.788;4.940;2023-04-24T02:33:54;9.10;99.90
13610;DHT22;6876;50.788;4.940;2023-04-24T02:36:41;9.00;99.90
13610;DHT22;6876;50.788;4.940;2023-04-24T02:39:28;9.00;99.90
13610;DHT22;6876;50.788;4.940;2023-04-24T02:42:16;9.00;99.90
13610;DHT22;6876;50.788;4.940;2023-04-24T02:45:03;9.00;99.90
13610;DHT22;6876;50.788;4.940;2023-04-24T02:47:52;9.00;99.90
13610;DHT22;6876;50.788;4.940;2023-04-24T02:50:40;9.00;99.90
13610;DHT22;6876;50.788;4.940;2023-04-24T02:53:27;9.00;99.90
13610;DHT22;6876;50.788;4.940;2023-04-24T02:56:15;9.10;99.90
13610;DHT22;6876;50.788;4.940;2023-04-24T02:59:03;9.10;99.90
13610;DHT22;6876;50.788;4.940;2023-04-24T03:01:50;9.00;99.90
13610;DHT22;6876;50.788;4.940;2023-04-24T03:04:39;9.00;99.90
13610;DHT22;6876;50.788;4.940;2023-04-24T03:07:28;9.00;99.90
13610;DHT22;6876;50.788;4.940;2023-04-24T03:10:17;9.00;99.90
13610;DHT22;6876;50.788;4.940;2023-04-24T03:13:04;9.00;99.90
13610;DHT22;6876;50.788;4.940;2023-04-24T03:15:51;9.00;99.90
13610;DHT22;6876;50.788;4.940;2023-04-24T03:18:40;9.00;99.90
13610;DHT22;6876;50.788;4.940;2023-04-24T03:21:28;9.00;99.90
13610;DHT22;6876;50.788;4.940;2023-04-24T03:24:16;9.00;99.90
13610;DHT22;6876;50.788;4.940;2023-04-24T03:27:03;9.00;99.90
13610;DHT22;6876;50.788;4.940;2023-04-24T03:29:51;9.00;99.90
13610;DHT22;6876;50.788;4.940;2023-04-24T03:32:41;8.90;99.90
13610;DHT22;6876;50.788;4.940;2023-04-24T03:35:28;8.90;99.90
13610;DHT22;6876;50.788;4.940;2023-04-24T03:38:17;8.90;99.90
13610;DHT22;6876;50.788;4.940;2023-04-24T03:41:04;8.90;99.90
13610;DHT22;6876;50.788;4.940;2023-04-24T03:43:51;8.80;99.90
13610;DHT22;6876;50.788;4.940;2023-04-24T03:46:39;8.80;99.90
13610;DHT22;6876;50.788;4.940;2023-04-24T03:49:26;8.80;99.90
13610;DHT22;6876;50.788;4.940;2023-04-24T03:52:13;8.80;99.90
13610;DHT22;6876;50.788;4.940;2023-04-24T03:55:02;8.80;99.90
13610;DHT22;6876;50.788;4.940;2023-04-24T03:57:49;8.80;99.90
13610;DHT22;6876;50.788;4.940;2023-04-24T04:00:37;8.80;99.90
13610;DHT22;6876;50.788;4.940;2023-04-24T04:03:26;8.80;99.90
13610;DHT22;6876;50.788;4.940;2023-04-24T04:06:13;8.80;99.90
13610;DHT22;6876;50.788;4.940;2023-04-24T04:09:00;8.80;99.90
13610;DHT22;6876;50.788;4.940;2023-04-24T04:11:50;8.80;99.90
13610;DHT22;6876;50.788;4.940;2023-04-24T04:14:37;8.80;99.90
13610;DHT22;6876;50.788;4.940;2023-04-24T04:17:25;8.80;99.90
13610;DHT22;6876;50.788;4.940;2023-04-24T04:20:12;8.80;99.90
13610;DHT22;6876;50.788;4.940;2023-04-24T04:22:59;8.80;99.90
13610;DHT22;6876;50.788;4.940;2023-04-24T04:25:47;8.70;99.90
13610;DHT22;6876;50.788;4.940;2023-04-24T04:28:35;8.70;99.90
13610;DHT22;6876;50.788;4.940;2023-04-24T04:31:23;8.70;99.90
13610;DHT22;6876;50.788;4.940;2023-04-24T04:34:11;8.70;99.90
13610;DHT22;6876;50.788;4.940;2023-04-24T04:36:58;8.60;99.90
13610;DHT22;6876;50.788;4.940;2023-04-24T04:39:47;8.60;99.90
13610;DHT22;6876;50.788;4.940;2023-04-24T04:42:34;8.70;99.90
13610;DHT22;6876;50.788;4.940;2023-04-24T04:45:23;8.60;99.90
13610;DHT22;6876;50.788;4.940;2023-04-24T04:48:10;8.60;99.90
13610;DHT22;6876;50.788;4.940;2023-04-24T04:50:59;8.60;99.90
13610;DHT22;6876;50.788;4.940;2023-04-24T04:53:46;8.70;99.90
13610;DHT22;6876;50.788;4.940;2023-04-24T04:56:34;8.70;99.90
13610;DHT22;6876;50.788;4.940;2023-04-24T04:59:21;8.70;99.90
13610;DHT22;6876;50.788;4.940;2023-04-24T05:02:10;8.70;99.90
13610;DHT22;6876;50.788;4.940;2023-04-24T05:04:57;8.70;99.90
13610;DHT22;6876;50.788;4.940;2023-04-24T05:07:44;8.70;99.90
13610;DHT22;6876;50.788;4.940;2023-04-24T05:10:32;8.70;99.90
13610;DHT22;6876;50.788;4.940;2023-04-24T05:13:19;8.70;99.90
13610;DHT22;6876;50.788;4.940;2023-04-24T05:16:06;8.70;99.90
13610;DHT22;6876;50.788;4.940;2023-04-24T05:18:55;8.60;99.90
13610;DHT22;6876;50.788;4.940;2023-04-24T05:21:42;8.60;99.90
13610;DHT22;6876;50.788;4.940;2023-04-24T05:24:30;8.50;99.90
13610;DHT22;6876;50.788;4.940;2023-04-24T05:27:17;8.60;99.90
13610;DHT22;6876;50.788;4.940;2023-04-24T05:30:05;8.50;99.90
13610;DHT22;6876;50.788;4.940;2023-04-24T05:32:53;8.50;99.90
13610;DHT22;6876;50.788;4.940;2023-04-24T05:35:42;8.50;99.90
13610;DHT22;6876;50.788;4.940;2023-04-24T05:38:32;8.60;99.90
13610;DHT22;6876;50.788;4.940;2023-04-24T05:41:19;8.60;99.90
13610;DHT22;6876;50.788;4.940;2023-04-24T05:44:07;8.60;99.90
13610;DHT22;6876;50.788;4.940;2023-04-24T05:46:54;8.60;99.90
13610;DHT22;6876;50.788;4.940;2023-04-24T05:49:42;8.60;99.90
13610;DHT22;6876;50.788;4.940;2023-04-24T05:52:31;8.60;99.90
13610;DHT22;6876;50.788;4.940;2023-04-24T05:55:19;8.60;99.90
13610;DHT22;6876;50.788;4.940;2023-04-24T05:58:06;8.60;99.90
13610;DHT22;6876;50.788;4.940;2023-04-24T06:00:53;8.60;99.90
13610;DHT22;6876;50.788;4.940;2023-04-24T06:03:41;8.60;99.90
13610;DHT22;6876;50.788;4.940;2023-04-24T06:06:28;8.60;99.90
13610;DHT22;6876;50.788;4.940;2023-04-24T06:09:17;8.60;99.90
13610;DHT22;6876;50.788;4.940;2023-04-24T06:12:05;8.60;99.90
13610;DHT22;6876;50.788;4.940;2023-04-24T06:14:54;8.60;99.90
13610;DHT22;6876;50.788;4.940;2023-04-24T06:17:41;8.60;99.90
13610;DHT22;6876;50.788;4.940;2023-04-24T06:20:29;8.50;99.90
13610;DHT22;6876;50.788;4.940;2023-04-24T06:23:16;8.50;99.90
13610;DHT22;6876;50.788;4.940;2023-04-24T06:26:05;8.40;99.90
13610;DHT22;6876;50.788;4.940;2023-04-24T06:28:53;8.60;99.90
13610;DHT22;6876;50.788;4.940;2023-04-24T06:31:40;8.60;99.90
13610;DHT22;6876;50.788;4.940;2023-04-24T06:34:28;8.60;99.90
13610;DHT22;6876;50.788;4.940;2023-04-24T06:37:17;8.60;99.90
13610;DHT22;6876;50.788;4.940;2023-04-24T06:40:06;8.50;99.90
13610;DHT22;6876;50.788;4.940;2023-04-24T06:42:55;8.40;99.90
13610;DHT22;6876;50.788;4.940;2023-04-24T06:45:43;8.40;99.90
13610;DHT22;6876;50.788;4.940;2023-04-24T06:48:32;8.40;99.90
13610;DHT22;6876;50.788;4.940;2023-04-24T06:51:19;8.50;99.90
13610;DHT22;6876;50.788;4.940;2023-04-24T06:54:07;8.50;99.90
13610;DHT22;6876;50.788;4.940;2023-04-24T06:56:54;8.50;99.90
13610;DHT22;6876;50.788;4.940;2023-04-24T06:59:44;8.50;99.90
13610;DHT22;6876;50.788;4.940;2023-04-24T07:02:31;8.50;99.90
13610;DHT22;6876;50.788;4.940;2023-04-24T07:05:19;8.50;99.90
13610;DHT22;6876;50.788;4.940;2023-04-24T07:08:07;8.60;99.90
13610;DHT22;6876;50.788;4.940;2023-04-24T07:10:57;8.60;99.90
13610;DHT22;6876;50.788;4.940;2023-04-24T07:13:44;8.70;99.90
13610;DHT22;6876;50.788;4.940;2023-04-24T07:16:33;8.70;99.90
13610;DHT22;6876;50.788;4.940;2023-04-24T07:19:20;8.70;99.90
13610;DHT22;6876;50.788;4.940;2023-04-24T07:22:08;8.70;99.90
13610;DHT22;6876;50.788;4.940;2023-04-24T07:24:57;8.60;99.90
13610;DHT22;6876;50.788;4.940;2023-04-24T07:27:44;8.70;99.90
13610;DHT22;6876;50.788;4.940;2023-04-24T07:30:32;8.80;99.90
13610;DHT22;6876;50.788;4.940;2023-04-24T07:33:21;8.90;99.90
13610;DHT22;6876;50.788;4.940;2023-04-24T07:36:08;9.00;99.90
13610;DHT22;6876;50.788;4.940;2023-04-24T07:39:01;9.00;99.90
13610;DHT22;6876;50.788;4.940;2023-04-24T07:41:48;9.20;99.90
13610;DHT22;6876;50.788;4.940;2023-04-24T07:44:36;9.20;99.90
13610;DHT22;6876;50.788;4.940;2023-04-24T07:47:23;9.20;99.90
13610;DHT22;6876;50.788;4.940;2023-04-24T07:50:12;9.20;99.90
13610;DHT22;6876;50.788;4.940;2023-04-24T07:52:59;9.20;99.90
13610;DHT22;6876;50.788;4.940;2023-04-24T07:55:47;9.30;99.90
13610;DHT22;6876;50.788;4.940;2023-04-24T07:58:34;9.30;99.90
13610;DHT22;6876;50.788;4.940;2023-04-24T08:01:22;9.20;99.90
13610;DHT22;6876;50.788;4.940;2023-04-24T08:04:09;9.20;99.90
13610;DHT22;6876;50.788;4.940;2023-04-24T08:06:58;9.10;99.90
13610;DHT22;6876;50.788;4.940;2023-04-24T08:09:45;9.10;99.90
13610;DHT22;6876;50.788;4.940;2023-04-24T08:12:32;9.10;99.90
13610;DHT22;6876;50.788;4.940;2023-04-24T08:15:20;9.10;99.90
13610;DHT22;6876;50.788;4.940;2023-04-24T08:18:08;9.20;99.90
13610;DHT22;6876;50.788;4.940;2023-04-24T08:20:57;9.30;99.90
13610;DHT22;6876;50.788;4.940;2023-04-24T08:23:48;9.40;99.90
13610;DHT22;6876;50.788;4.940;2023-04-24T08:26:36;9.50;99.90
13610;DHT22;6876;50.788;4.940;2023-04-24T08:29:23;9.60;99.90
13610;DHT22;6876;50.788;4.940;2023-04-24T08:32:10;9.80;99.90
13610;DHT22;6876;50.788;4.940;2023-04-24T08:34:58;10.50;99.90
13610;DHT22;6876;50.788;4.940;2023-04-24T08:37:45;12.00;99.90
13610;DHT22;6876;50.788;4.940;2023-04-24T08:40:35;12.90;99.90
13610;DHT22;6876;50.788;4.940;2023-04-24T08:43:23;13.80;99.90
13610;DHT22;6876;50.788;4.940;2023-04-24T08:46:13;13.20;99.90
13610;DHT22;6876;50.788;4.940;2023-04-24T08:49:00;13.90;99.90
13610;DHT22;6876;50.788;4.940;2023-04-24T08:51:49;15.80;99.90
13610;DHT22;6876;50.788;4.940;2023-04-24T08:54:37;15.30;99.90
13610;DHT22;6876;50.788;4.940;2023-04-24T08:57:27;13.30;99.90
13610;DHT22;6876;50.788;4.940;2023-04-24T09:00:16;12.30;99.90
13610;DHT22;6876;50.788;4.940;2023-04-24T09:03:05;11.70;99.90
13610;DHT22;6876;50.788;4.940;2023-04-24T09:05:54;11.50;99.90
13610;DHT22;6876;50.788;4.940;2023-04-24T09:08:42;11.70;99.90
13610;DHT22;6876;50.788;4.940;2023-04-24T09:11:31;12.20;99.90
13610;DHT22;6876;50.788;4.940;2023-04-24T09:14:20;13.80;99.90
13610;DHT22;6876;50.788;4.940;2023-04-24T09:17:09;15.10;99.90
13610;DHT22;6876;50.788;4.940;2023-04-24T09:19:56;15.20;99.90
13610;DHT22;6876;50.788;4.940;2023-04-24T09:22:45;14.90;99.90
13610;DHT22;6876;50.788;4.940;2023-04-24T09:25:33;14.50;99.90
13610;DHT22;6876;50.788;4.940;2023-04-24T09:28:25;13.70;99.90
13610;DHT22;6876;50.788;4.940;2023-04-24T09:31:17;13.00;99.90
13610;DHT22;6876;50.788;4.940;2023-04-24T09:34:07;12.10;99.90
13610;DHT22;6876;50.788;4.940;2023-04-24T09:36:54;11.90;99.90
13610;DHT22;6876;50.788;4.940;2023-04-24T09:39:42;12.10;99.90
13610;DHT22;6876;50.788;4.940;2023-04-24T09:42:29;12.70;99.90
13610;DHT22;6876;50.788;4.940;2023-04-24T09:45:18;14.00;99.90
13610;DHT22;6876;50.788;4.940;2023-04-24T09:48:09;15.20;99.90
13610;DHT22;6876;50.788;4.940;2023-04-24T09:50:56;15.60;99.90
13610;DHT22;6876;50.788;4.940;2023-04-24T09:53:46;15.80;99.90
13610;DHT22;6876;50.788;4.940;2023-04-24T09:56:33;15.70;99.90
13610;DHT22;6876;50.788;4.940;2023-04-24T09:59:21;15.80;99.90
13610;DHT22;6876;50.788;4.940;2023-04-24T10:02:17;14.90;99.90
13610;DHT22;6876;50.788;4.940;2023-04-24T10:05:07;14.10;99.90
13610;DHT22;6876;50.788;4.940;2023-04-24T10:08:00;13.60;99.90
13610;DHT22;6876;50.788;4.940;2023-04-24T10:10:48;13.60;99.90
13610;DHT22;6876;50.788;4.940;2023-04-24T10:13:36;13.50;99.90
13610;DHT22;6876;50.788;4.940;2023-04-24T10:16:24;13.10;99.90
13610;DHT22;6876;50.788;4.940;2023-04-24T10:19:14;12.90;99.90
13610;DHT22;6876;50.788;4.940;2023-04-24T10:22:03;12.50;99.90
13610;DHT22;6876;50.788;4.940;2023-04-24T10:24:52;12.10;99.90
13610;DHT22;6876;50.788;4.940;2023-04-24T10:27:40;12.00;99.90
13610;DHT22;6876;50.788;4.940;2023-04-24T10:30:29;12.10;99.90
13610;DHT22;6876;50.788;4.940;2023-04-24T10:33:17;12.20;99.90
13610;DHT22;6876;50.788;4.940;2023-04-24T10:36:05;12.20;99.90
13610;DHT22;6876;50.788;4.940;2023-04-24T10:38:56;13.50;99.90
13610;DHT22;6876;50.788;4.940;2023-04-24T10:41:44;14.30;99.90
13610;DHT22;6876;50.788;4.940;2023-04-24T10:44:36;14.40;99.90
13610;DHT22;6876;50.788;4.940;2023-04-24T10:47:23;13.80;99.90
13610;DHT22;6876;50.788;4.940;2023-04-24T10:50:11;13.60;99.90
13610;DHT22;6876;50.788;4.940;2023-04-24T10:53:12;13.40;99.90
13610;DHT22;6876;50.788;4.940;2023-04-24T10:56:05;13.50;99.90
13610;DHT22;6876;50.788;4.940;2023-04-24T10:58:53;14.50;99.90
13610;DHT22;6876;50.788;4.940;2023-04-24T11:01:52;14.80;99.90
13610;DHT22;6876;50.788;4.940;2023-04-24T11:04:40;14.50;1.00
13610;DHT22;6876;50.788;4.940;2023-04-24T11:07:28;14.00;1.00
13610;DHT22;6876;50.788;4.940;2023-04-24T11:10:25;13.60;1.00
13610;DHT22;6876;50.788;4.940;2023-04-24T11:13:16;13.30;99.90
13610;DHT22;6876;50.788;4.940;2023-04-24T11:16:13;13.20;99.90
13610;DHT22;6876;50.788;4.940;2023-04-24T11:19:02;13.50;99.90
13610;DHT22;6876;50.788;4.940;2023-04-24T11:21:56;13.70;99.90
13610;DHT22;6876;50.788;4.940;2023-04-24T11:24:50;13.70;99.90
13610;DHT22;6876;50.788;4.940;2023-04-24T11:27:40;13.80;99.90
13610;DHT22;6876;50.788;4.940;2023-04-24T11:30:29;13.90;99.90
13610;DHT22;6876;50.788;4.940;2023-04-24T11:33:20;14.00;99.90
13610;DHT22;6876;50.788;4.940;2023-04-24T11:36:07;14.10;99.90
13610;DHT22;6876;50.788;4.940;2023-04-24T11:38:55;14.10;99.90
13610;DHT22;6876;50.788;4.940;2023-04-24T11:41:43;14.20;99.90
13610;DHT22;6876;50.788;4.940;2023-04-24T11:44:31;14.60;99.90
13610;DHT22;6876;50.788;4.940;2023-04-24T11:47:27;14.40;99.90
13610;DHT22;6876;50.788;4.940;2023-04-24T11:50:16;14.30;99.90
13610;DHT22;6876;50.788;4.940;2023-04-24T11:53:04;14.10;99.90
13610;DHT22;6876;50.788;4.940;2023-04-24T11:55:51;13.70;99.90
13610;DHT22;6876;50.788;4.940;2023-04-24T11:58:39;13.20;99.90
13610;DHT22;6876;50.788;4.940;2023-04-24T12:01:26;12.90;99.90
13610;DHT22;6876;50.788;4.940;2023-04-24T12:04:16;13.00;99.90
13610;DHT22;6876;50.788;4.940;2023-04-24T12:07:04;13.10;99.90
13610;DHT22;6876;50.788;4.940;2023-04-24T12:09:56;13.20;99.90
13610;DHT22;6876;50.788;4.940;2023-04-24T12:12:45;13.60;99.90
13610;DHT22;6876;50.788;4.940;2023-04-24T12:15:33;13.80;99.90
13610;DHT22;6876;50.788;4.940;2023-04-24T12:18:22;14.00;99.90
13610;DHT22;6876;50.788;4.940;2023-04-24T12:21:18;14.20;1.00
13610;DHT22;6876;50.788;4.940;2023-04-24T12:24:06;14.50;99.90
13610;DHT22;6876;50.788;4.940;2023-04-24T12:26:54;14.80;99.90
13610;DHT22;6876;50.788;4.940;2023-04-24T12:29:51;14.90;99.90
13610;DHT22;6876;50.788;4.940;2023-04-24T12:32:42;15.10;99.90
13610;DHT22;6876;50.788;4.940;2023-04-24T12:35:31;15.50;99.90
13610;DHT22;6876;50.788;4.940;2023-04-24T12:38:22;15.60;99.90
13610;DHT22;6876;50.788;4.940;2023-04-24T12:41:11;15.30;99.90
13610;DHT22;6876;50.788;4.940;2023-04-24T12:43:59;14.80;99.90
13610;DHT22;6876;50.788;4.940;2023-04-24T12:46:46;14.70;99.90
13610;DHT22;6876;50.788;4.940;2023-04-24T12:49:34;15.10;99.90
13610;DHT22;6876;50.788;4.940;2023-04-24T12:52:21;15.30;99.90
13610;DHT22;6876;50.788;4.940;2023-04-24T12:55:11;15.40;99.90
13610;DHT22;6876;50.788;4.940;2023-04-24T12:57:59;15.70;99.90
13610;DHT22;6876;50.788;4.940;2023-04-24T13:00:46;15.60;99.90
13610;DHT22;6876;50.788;4.940;2023-04-24T13:03:34;15.70;99.90
13610;DHT22;6876;50.788;4.940;2023-04-24T13:06:21;15.60;99.90
13610;DHT22;6876;50.788;4.940;2023-04-24T13:09:08;15.60;96.40
13610;DHT22;6876;50.788;4.940;2023-04-24T13:11:57;15.40;55.10
13610;DHT22;6876;50.788;4.940;2023-04-24T13:14:44;15.40;15.90
13610;DHT22;6876;50.788;4.940;2023-04-24T13:17:32;15.40;1.00
13610;DHT22;6876;50.788;4.940;2023-04-24T13:20:20;15.40;1.00
13610;DHT22;6876;50.788;4.940;2023-04-24T13:23:07;15.50;1.00
13610;DHT22;6876;50.788;4.940;2023-04-24T13:25:54;15.50;1.00
13610;DHT22;6876;50.788;4.940;2023-04-24T13:28:45;15.80;1.00
13610;DHT22;6876;50.788;4.940;2023-04-24T13:31:33;15.90;1.00
13610;DHT22;6876;50.788;4.940;2023-04-24T13:34:20;16.10;1.00
13610;DHT22;6876;50.788;4.940;2023-04-24T13:37:08;15.90;1.00
13610;DHT22;6876;50.788;4.940;2023-04-24T13:39:55;15.70;1.00
13610;DHT22;6876;50.788;4.940;2023-04-24T13:42:43;15.30;1.00
13610;DHT22;6876;50.788;4.940;2023-04-24T13:45:31;15.40;1.00
13610;DHT22;6876;50.788;4.940;2023-04-24T13:48:19;15.30;1.00
13610;DHT22;6876;50.788;4.940;2023-04-24T13:51:06;15.20;1.00
13610;DHT22;6876;50.788;4.940;2023-04-24T13:53:54;15.20;1.00
13610;DHT22;6876;50.788;4.940;2023-04-24T13:56:41;15.20;1.00
13610;DHT22;6876;50.788;4.940;2023-04-24T13:59:29;15.20;1.00
13610;DHT22;6876;50.788;4.940;2023-04-24T14:02:18;15.30;1.00
13610;DHT22;6876;50.788;4.940;2023-04-24T14:05:05;15.20;1.00
13610;DHT22;6876;50.788;4.940;2023-04-24T14:07:53;14.90;1.00
13610;DHT22;6876;50.788;4.940;2023-04-24T14:10:40;14.90;1.00
13610;DHT22;6876;50.788;4.940;2023-04-24T14:13:29;14.80;1.00
13610;DHT22;6876;50.788;4.940;2023-04-24T14:16:17;14.70;1.00
13610;DHT22;6876;50.788;4.940;2023-04-24T14:19:06;14.90;1.00
13610;DHT22;6876;50.788;4.940;2023-04-24T14:21:53;15.10;1.00
13610;DHT22;6876;50.788;4.940;2023-04-24T14:24:42;15.20;1.00
13610;DHT22;6876;50.788;4.940;2023-04-24T14:27:30;15.30;1.00
13610;DHT22;6876;50.788;4.940;2023-04-24T14:30:20;15.10;1.00
13610;DHT22;6876;50.788;4.940;2023-04-24T14:33:07;14.90;1.00
13610;DHT22;6876;50.788;4.940;2023-04-24T14:35:56;14.80;1.00
13610;DHT22;6876;50.788;4.940;2023-04-24T14:38:44;14.80;1.00
13610;DHT22;6876;50.788;4.940;2023-04-24T14:41:31;14.60;1.00
13610;DHT22;6876;50.788;4.940;2023-04-24T14:44:21;14.50;1.00
13610;DHT22;6876;50.788;4.940;2023-04-24T14:47:09;14.30;1.00
13610;DHT22;6876;50.788;4.940;2023-04-24T14:49:56;14.30;1.00
13610;DHT22;6876;50.788;4.940;2023-04-24T14:52:45;14.30;1.00
13610;DHT22;6876;50.788;4.940;2023-04-24T14:55:33;14.40;1.00
13610;DHT22;6876;50.788;4.940;2023-04-24T14:58:22;14.30;1.00
13610;DHT22;6876;50.788;4.940;2023-04-24T15:01:10;14.20;1.00
13610;DHT22;6876;50.788;4.940;2023-04-24T15:03:57;14.00;1.00
13610;DHT22;6876;50.788;4.940;2023-04-24T15:06:46;14.20;1.00
13610;DHT22;6876;50.788;4.940;2023-04-24T15:09:35;14.20;1.00
13610;DHT22;6876;50.788;4.940;2023-04-24T15:12:23;14.20;1.00
13610;DHT22;6876;50.788;4.940;2023-04-24T15:15:10;14.20;1.00
13610;DHT22;6876;50.788;4.940;2023-04-24T15:17:58;14.20;1.00
13610;DHT22;6876;50.788;4.940;2023-04-24T15:20:45;14.20;1.00
13610;DHT22;6876;50.788;4.940;2023-04-24T15:23:33;14.20;1.00
13610;DHT22;6876;50.788;4.940;2023-04-24T15:26:22;13.90;1.00
13610;DHT22;6876;50.788;4.940;2023-04-24T15:29:10;13.70;1.00
13610;DHT22;6876;50.788;4.940;2023-04-24T15:31:57;13.70;1.00
13610;DHT22;6876;50.788;4.940;2023-04-24T15:34:45;13.60;1.00
13610;DHT22;6876;50.788;4.940;2023-04-24T15:37:33;13.60;1.00
13610;DHT22;6876;50.788;4.940;2023-04-24T15:40:20;13.80;1.00
13610;DHT22;6876;50.788;4.940;2023-04-24T15:43:09;14.20;1.00
13610;DHT22;6876;50.788;4.940;2023-04-24T15:45:57;14.50;1.00
13610;DHT22;6876;50.788;4.940;2023-04-24T15:48:44;14.70;1.00
13610;DHT22;6876;50.788;4.940;2023-04-24T15:51:31;14.60;1.00
13610;DHT22;6876;50.788;4.940;2023-04-24T15:54:19;14.40;1.00
13610;DHT22;6876;50.788;4.940;2023-04-24T15:57:06;14.30;1.00
13610;DHT22;6876;50.788;4.940;2023-04-24T15:59:55;14.20;1.00
13610;DHT22;6876;50.788;4.940;2023-04-24T16:02:42;14.00;1.00
13610;DHT22;6876;50.788;4.940;2023-04-24T16:05:30;13.90;1.00
13610;DHT22;6876;50.788;4.940;2023-04-24T16:08:17;13.80;1.00
13610;DHT22;6876;50.788;4.940;2023-04-24T16:11:05;13.80;1.00
13610;DHT22;6876;50.788;4.940;2023-04-24T16:13:53;13.70;1.00
13610;DHT22;6876;50.788;4.940;2023-04-24T16:16:42;13.60;1.00
13610;DHT22;6876;50.788;4.940;2023-04-24T16:19:29;13.60;1.00
13610;DHT22;6876;50.788;4.940;2023-04-24T16:22:16;13.50;1.00
13610;DHT22;6876;50.788;4.940;2023-04-24T16:25:04;13.50;1.00
13610;DHT22;6876;50.788;4.940;2023-04-24T16:27:52;13.40;1.00
13610;DHT22;6876;50.788;4.940;2023-04-24T16:30:39;13.20;1.00
13610;DHT22;6876;50.788;4.940;2023-04-24T16:33:28;13.20;1.00
13610;DHT22;6876;50.788;4.940;2023-04-24T16:36:16;13.10;1.00
13610;DHT22;6876;50.788;4.940;2023-04-24T16:39:04;13.00;1.00
13610;DHT22;6876;50.788;4.940;2023-04-24T16:41:51;13.00;1.00
13610;DHT22;6876;50.788;4.940;2023-04-24T16:44:40;13.00;1.00
13610;DHT22;6876;50.788;4.940;2023-04-24T16:47:28;12.90;1.00
13610;DHT22;6876;50.788;4.940;2023-04-24T16:50:17;13.00;1.00
13610;DHT22;6876;50.788;4.940;2023-04-24T16:53:04;13.10;1.00
13610;DHT22;6876;50.788;4.940;2023-04-24T16:55:51;13.10;1.00
13610;DHT22;6876;50.788;4.940;2023-04-24T16:58:38;13.00;1.00
13610;DHT22;6876;50.788;4.940;2023-04-24T17:01:26;13.00;1.00
13610;DHT22;6876;50.788;4.940;2023-04-24T17:04:13;13.00;1.00
13610;DHT22;6876;50.788;4.940;2023-04-24T17:07:02;13.00;1.00
13610;DHT22;6876;50.788;4.940;2023-04-24T17:09:49;13.00;1.00
13610;DHT22;6876;50.788;4.940;2023-04-24T17:12:37;13.10;1.00
13610;DHT22;6876;50.788;4.940;2023-04-24T17:15:24;13.00;1.00
13610;DHT22;6876;50.788;4.940;2023-04-24T17:18:12;12.90;1.00
13610;DHT22;6876;50.788;4.940;2023-04-24T17:20:59;12.80;1.00
13610;DHT22;6876;50.788;4.940;2023-04-24T17:23:48;12.70;99.90
13610;DHT22;6876;50.788;4.940;2023-04-24T17:26:35;12.70;1.00
13610;DHT22;6876;50.788;4.940;2023-04-24T17:29:23;12.70;1.00
13610;DHT22;6876;50.788;4.940;2023-04-24T17:32:10;12.80;1.00
13610;DHT22;6876;50.788;4.940;2023-04-24T17:34:57;12.90;1.00
13610;DHT22;6876;50.788;4.940;2023-04-24T17:37:46;12.80;1.00
13610;DHT22;6876;50.788;4.940;2023-04-24T17:40:35;12.80;1.00
13610;DHT22;6876;50.788;4.940;2023-04-24T17:43:24;12.70;1.00
13610;DHT22;6876;50.788;4.940;2023-04-24T17:46:12;12.80;1.00
13610;DHT22;6876;50.788;4.940;2023-04-24T17:48:59;12.80;1.00
13610;DHT22;6876;50.788;4.940;2023-04-24T17:51:47;12.60;99.90
13610;DHT22;6876;50.788;4.940;2023-04-24T17:54:34;12.60;99.90
13610;DHT22;6876;50.788;4.940;2023-04-24T17:57:23;12.60;99.90
13610;DHT22;6876;50.788;4.940;2023-04-24T18:00:11;12.50;99.90
13610;DHT22;6876;50.788;4.940;2023-04-24T18:02:59;12.30;99.90
13610;DHT22;6876;50.788;4.940;2023-04-24T18:05:48;12.20;99.90
13610;DHT22;6876;50.788;4.940;2023-04-24T18:08:35;12.10;99.90
13610;DHT22;6876;50.788;4.940;2023-04-24T18:11:23;12.00;99.90
13610;DHT22;6876;50.788;4.940;2023-04-24T18:14:12;12.00;99.90